This is the latest recevied weather packets stored in our database for station/object MAKIL. If no packets are shown the sender has not sent any weather packets the latest 1 day(s).
| Time | Temp. | Humidity | Pressure | Rain* | Wind** | Luminosity | Snow |
|---|---|---|---|---|---|---|---|
| 1777975637 | 7.22° C | 80% | - | - | 13.41 m/s, 242° | - | - |
| 1777974436 | 7.22° C | 82% | - | - | 13.86 m/s, 239° | - | - |
| 1777973237 | 7.78° C | 79% | - | - | 12.96 m/s, 240° | - | - |
| 1777972036 | 7.22° C | 81% | - | - | 11.62 m/s, 237° | - | - |
| 1777970837 | 7.22° C | 82% | - | - | 10.28 m/s, 232° | - | - |
| 1777969637 | 7.22° C | 82% | - | - | 10.73 m/s, 234° | - | - |
| 1777968436 | 6.67° C | 82% | - | - | 12.52 m/s, 239° | - | - |
| 1777967236 | 7.22° C | 81% | - | - | 12.96 m/s, 239° | - | - |
| 1777966036 | 7.22° C | 81% | - | - | 12.52 m/s, 240° | - | - |
| 1777964836 | 7.22° C | 81% | - | - | 11.62 m/s, 240° | - | - |
| 1777963636 | 7.22° C | 81% | - | - | 11.62 m/s, 242° | - | - |
| 1777962436 | 7.22° C | 81% | - | - | 11.62 m/s, 240° | - | - |
| 1777961236 | 6.67° C | 81% | - | - | 11.62 m/s, 240° | - | - |
| 1777960036 | 6.67° C | 81% | - | - | 9.83 m/s, 234° | - | - |
| 1777958836 | 6.67° C | 82% | - | - | 9.83 m/s, 231° | - | - |
| 1777957635 | 6.67° C | 86% | - | - | 9.83 m/s, 221° | - | - |
| 1777956435 | 6.11° C | 87% | - | - | 10.28 m/s, 221° | - | - |
| 1777955235 | 6.11° C | 89% | - | - | 8.94 m/s, 217° | - | - |
| 1777954036 | 6.11° C | 96% | - | - | 8.49 m/s, 210° | - | - |
| 1777952835 | 5.56° C | 98% | - | - | 9.39 m/s, 218° | - | - |
| 1777951635 | 5.56° C | 99% | - | - | 8.05 m/s, 213° | - | - |
* Rain since midnight (hover to see other rain measurements)
** Current wind speed in m/s (hover to see current wind gust speed)